sensor_id;sensor_type;location;lat;lon;timestamp;P1;durP1;ratioP1;P2;durP2;ratioP2
32032;SDS011;31720;52.638;9.216;2023-08-30T00:00:30;2.75;;;2.22;;
32032;SDS011;31720;52.638;9.216;2023-08-30T00:03:32;5.13;;;2.13;;
32032;SDS011;31720;52.638;9.216;2023-08-30T00:06:33;3.42;;;1.73;;
32032;SDS011;31720;52.638;9.216;2023-08-30T00:09:35;4.97;;;2.80;;
32032;SDS011;31720;52.638;9.216;2023-08-30T00:12:36;2.53;;;2.03;;
32032;SDS011;31720;52.638;9.216;2023-08-30T00:15:39;3.35;;;2.38;;
32032;SDS011;31720;52.638;9.216;2023-08-30T00:18:40;3.65;;;2.42;;
32032;SDS011;31720;52.638;9.216;2023-08-30T00:21:42;3.85;;;2.42;;
32032;SDS011;31720;52.638;9.216;2023-08-30T00:24:44;3.25;;;2.47;;
32032;SDS011;31720;52.638;9.216;2023-08-30T00:27:46;5.82;;;2.50;;
32032;SDS011;31720;52.638;9.216;2023-08-30T00:30:53;3.67;;;2.63;;
32032;SDS011;31720;52.638;9.216;2023-08-30T00:33:55;4.60;;;2.47;;
32032;SDS011;31720;52.638;9.216;2023-08-30T00:36:57;3.42;;;2.70;;
32032;SDS011;31720;52.638;9.216;2023-08-30T00:39:58;6.50;;;3.05;;
32032;SDS011;31720;52.638;9.216;2023-08-30T00:42:59;4.85;;;2.83;;
32032;SDS011;31720;52.638;9.216;2023-08-30T00:46:02;4.90;;;2.67;;
32032;SDS011;31720;52.638;9.216;2023-08-30T00:49:04;4.05;;;2.50;;
32032;SDS011;31720;52.638;9.216;2023-08-30T00:52:07;4.55;;;2.70;;
32032;SDS011;31720;52.638;9.216;2023-08-30T00:55:10;3.72;;;2.60;;
32032;SDS011;31720;52.638;9.216;2023-08-30T00:58:12;5.18;;;2.65;;
32032;SDS011;31720;52.638;9.216;2023-08-30T01:01:15;8.73;;;2.85;;
32032;SDS011;31720;52.638;9.216;2023-08-30T01:04:16;5.93;;;2.53;;
32032;SDS011;31720;52.638;9.216;2023-08-30T01:07:19;4.90;;;3.00;;
32032;SDS011;31720;52.638;9.216;2023-08-30T01:10:24;3.70;;;2.65;;
32032;SDS011;31720;52.638;9.216;2023-08-30T01:13:33;3.20;;;2.40;;
32032;SDS011;31720;52.638;9.216;2023-08-30T01:16:42;3.20;;;2.50;;
32032;SDS011;31720;52.638;9.216;2023-08-30T01:19:46;4.97;;;2.60;;
32032;SDS011;31720;52.638;9.216;2023-08-30T01:22:54;4.60;;;2.90;;
32032;SDS011;31720;52.638;9.216;2023-08-30T01:26:03;4.43;;;2.80;;
32032;SDS011;31720;52.638;9.216;2023-08-30T01:32:12;5.95;;;2.83;;
32032;SDS011;31720;52.638;9.216;2023-08-30T01:35:14;6.03;;;2.30;;
32032;SDS011;31720;52.638;9.216;2023-08-30T01:38:19;3.83;;;2.75;;
32032;SDS011;31720;52.638;9.216;2023-08-30T01:41:21;5.53;;;3.08;;
32032;SDS011;31720;52.638;9.216;2023-08-30T01:44:24;5.18;;;3.20;;
32032;SDS011;31720;52.638;9.216;2023-08-30T01:47:27;4.80;;;3.05;;
32032;SDS011;31720;52.638;9.216;2023-08-30T01:50:29;6.18;;;3.20;;
32032;SDS011;31720;52.638;9.216;2023-08-30T01:53:31;5.35;;;3.30;;
32032;SDS011;31720;52.638;9.216;2023-08-30T01:56:33;4.75;;;3.50;;
32032;SDS011;31720;52.638;9.216;2023-08-30T01:59:36;6.00;;;3.45;;
32032;SDS011;31720;52.638;9.216;2023-08-30T02:02:37;5.55;;;2.78;;
32032;SDS011;31720;52.638;9.216;2023-08-30T02:05:40;6.45;;;3.28;;
32032;SDS011;31720;52.638;9.216;2023-08-30T02:08:55;4.28;;;2.53;;
32032;SDS011;31720;52.638;9.216;2023-08-30T02:12:04;4.82;;;3.42;;
32032;SDS011;31720;52.638;9.216;2023-08-30T02:15:09;7.80;;;3.70;;
32032;SDS011;31720;52.638;9.216;2023-08-30T02:18:13;4.68;;;3.65;;
32032;SDS011;31720;52.638;9.216;2023-08-30T02:21:14;6.38;;;3.78;;
32032;SDS011;31720;52.638;9.216;2023-08-30T02:24:16;7.45;;;2.88;;
32032;SDS011;31720;52.638;9.216;2023-08-30T02:27:17;3.80;;;3.28;;
32032;SDS011;31720;52.638;9.216;2023-08-30T02:30:20;5.65;;;3.08;;
32032;SDS011;31720;52.638;9.216;2023-08-30T02:33:21;8.02;;;3.58;;
32032;SDS011;31720;52.638;9.216;2023-08-30T02:36:23;5.28;;;3.78;;
32032;SDS011;31720;52.638;9.216;2023-08-30T02:39:24;4.93;;;3.15;;
32032;SDS011;31720;52.638;9.216;2023-08-30T02:42:25;5.32;;;3.20;;
32032;SDS011;31720;52.638;9.216;2023-08-30T02:45:28;5.30;;;3.42;;
32032;SDS011;31720;52.638;9.216;2023-08-30T02:48:30;4.30;;;3.17;;
32032;SDS011;31720;52.638;9.216;2023-08-30T02:51:31;5.53;;;3.13;;
32032;SDS011;31720;52.638;9.216;2023-08-30T02:54:32;6.95;;;3.55;;
32032;SDS011;31720;52.638;9.216;2023-08-30T02:57:39;7.22;;;4.00;;
32032;SDS011;31720;52.638;9.216;2023-08-30T03:00:42;6.35;;;3.63;;
32032;SDS011;31720;52.638;9.216;2023-08-30T03:03:44;6.13;;;3.67;;
32032;SDS011;31720;52.638;9.216;2023-08-30T03:06:46;6.28;;;3.38;;
32032;SDS011;31720;52.638;9.216;2023-08-30T03:09:51;7.68;;;3.40;;
32032;SDS011;31720;52.638;9.216;2023-08-30T03:12:53;4.88;;;3.35;;
32032;SDS011;31720;52.638;9.216;2023-08-30T03:15:56;5.65;;;3.60;;
32032;SDS011;31720;52.638;9.216;2023-08-30T03:18:57;4.90;;;3.35;;
32032;SDS011;31720;52.638;9.216;2023-08-30T03:21:59;8.20;;;3.92;;
32032;SDS011;31720;52.638;9.216;2023-08-30T03:25:00;6.28;;;3.83;;
32032;SDS011;31720;52.638;9.216;2023-08-30T03:28:03;5.43;;;3.28;;
32032;SDS011;31720;52.638;9.216;2023-08-30T03:31:13;6.00;;;3.67;;
32032;SDS011;31720;52.638;9.216;2023-08-30T03:34:15;5.30;;;3.85;;
32032;SDS011;31720;52.638;9.216;2023-08-30T03:37:17;5.80;;;3.92;;
32032;SDS011;31720;52.638;9.216;2023-08-30T03:40:18;5.18;;;3.83;;
32032;SDS011;31720;52.638;9.216;2023-08-30T03:43:20;5.63;;;3.78;;
32032;SDS011;31720;52.638;9.216;2023-08-30T03:46:22;5.00;;;3.80;;
32032;SDS011;31720;52.638;9.216;2023-08-30T03:49:24;6.68;;;3.78;;
32032;SDS011;31720;52.638;9.216;2023-08-30T03:52:25;4.82;;;3.33;;
32032;SDS011;31720;52.638;9.216;2023-08-30T03:55:27;5.82;;;3.72;;
32032;SDS011;31720;52.638;9.216;2023-08-30T03:58:28;6.78;;;3.72;;
32032;SDS011;31720;52.638;9.216;2023-08-30T04:01:31;5.82;;;3.70;;
32032;SDS011;31720;52.638;9.216;2023-08-30T04:04:32;6.85;;;4.30;;
32032;SDS011;31720;52.638;9.216;2023-08-30T04:07:33;6.70;;;3.85;;
32032;SDS011;31720;52.638;9.216;2023-08-30T04:10:35;6.53;;;4.13;;
32032;SDS011;31720;52.638;9.216;2023-08-30T04:13:37;5.40;;;3.72;;
32032;SDS011;31720;52.638;9.216;2023-08-30T04:16:39;7.65;;;4.43;;
32032;SDS011;31720;52.638;9.216;2023-08-30T04:19:41;7.70;;;4.68;;
32032;SDS011;31720;52.638;9.216;2023-08-30T04:22:42;7.93;;;4.38;;
32032;SDS011;31720;52.638;9.216;2023-08-30T04:25:44;7.72;;;4.68;;
32032;SDS011;31720;52.638;9.216;2023-08-30T04:28:45;9.05;;;5.00;;
32032;SDS011;31720;52.638;9.216;2023-08-30T04:31:48;4.82;;;2.95;;
32032;SDS011;31720;52.638;9.216;2023-08-30T04:34:49;6.03;;;4.07;;
32032;SDS011;31720;52.638;9.216;2023-08-30T04:37:51;9.02;;;4.40;;
32032;SDS011;31720;52.638;9.216;2023-08-30T04:40:56;5.00;;;3.40;;
32032;SDS011;31720;52.638;9.216;2023-08-30T04:43:58;6.03;;;3.90;;
32032;SDS011;31720;52.638;9.216;2023-08-30T04:47:01;8.82;;;4.65;;
32032;SDS011;31720;52.638;9.216;2023-08-30T04:50:03;5.75;;;3.50;;
32032;SDS011;31720;52.638;9.216;2023-08-30T04:53:05;6.68;;;3.75;;
32032;SDS011;31720;52.638;9.216;2023-08-30T04:56:12;10.15;;;4.97;;
32032;SDS011;31720;52.638;9.216;2023-08-30T04:59:14;6.78;;;4.60;;
32032;SDS011;31720;52.638;9.216;2023-08-30T05:02:17;6.53;;;4.35;;
32032;SDS011;31720;52.638;9.216;2023-08-30T05:05:18;4.93;;;3.60;;
32032;SDS011;31720;52.638;9.216;2023-08-30T05:08:19;7.32;;;4.80;;
32032;SDS011;31720;52.638;9.216;2023-08-30T05:11:21;7.15;;;4.40;;
32032;SDS011;31720;52.638;9.216;2023-08-30T05:14:22;5.90;;;4.00;;
32032;SDS011;31720;52.638;9.216;2023-08-30T05:17:25;8.20;;;4.80;;
32032;SDS011;31720;52.638;9.216;2023-08-30T05:20:29;7.53;;;4.80;;
32032;SDS011;31720;52.638;9.216;2023-08-30T05:23:31;8.73;;;5.70;;
32032;SDS011;31720;52.638;9.216;2023-08-30T05:26:32;6.72;;;4.45;;
32032;SDS011;31720;52.638;9.216;2023-08-30T05:29:33;7.63;;;4.85;;
32032;SDS011;31720;52.638;9.216;2023-08-30T05:32:36;7.28;;;5.00;;
32032;SDS011;31720;52.638;9.216;2023-08-30T05:35:38;6.75;;;4.53;;
32032;SDS011;31720;52.638;9.216;2023-08-30T05:38:39;9.82;;;5.45;;
32032;SDS011;31720;52.638;9.216;2023-08-30T05:41:41;6.70;;;4.10;;
32032;SDS011;31720;52.638;9.216;2023-08-30T05:44:43;7.63;;;4.85;;
32032;SDS011;31720;52.638;9.216;2023-08-30T05:47:45;9.27;;;5.15;;
32032;SDS011;31720;52.638;9.216;2023-08-30T05:50:48;7.75;;;5.03;;
32032;SDS011;31720;52.638;9.216;2023-08-30T05:53:49;6.60;;;4.53;;
32032;SDS011;31720;52.638;9.216;2023-08-30T05:56:50;7.35;;;4.82;;
32032;SDS011;31720;52.638;9.216;2023-08-30T05:59:52;13.05;;;5.55;;
32032;SDS011;31720;52.638;9.216;2023-08-30T06:02:54;8.65;;;5.57;;
32032;SDS011;31720;52.638;9.216;2023-08-30T06:05:56;9.43;;;5.32;;
32032;SDS011;31720;52.638;9.216;2023-08-30T06:08:57;10.00;;;5.50;;
32032;SDS011;31720;52.638;9.216;2023-08-30T06:11:59;10.50;;;5.50;;
32032;SDS011;31720;52.638;9.216;2023-08-30T06:15:00;7.43;;;4.82;;
32032;SDS011;31720;52.638;9.216;2023-08-30T06:18:03;7.65;;;4.75;;
32032;SDS011;31720;52.638;9.216;2023-08-30T06:21:04;7.95;;;5.70;;
32032;SDS011;31720;52.638;9.216;2023-08-30T06:24:06;8.65;;;5.40;;
32032;SDS011;31720;52.638;9.216;2023-08-30T06:27:08;8.48;;;5.55;;
32032;SDS011;31720;52.638;9.216;2023-08-30T06:30:10;8.32;;;4.97;;
32032;SDS011;31720;52.638;9.216;2023-08-30T06:33:13;8.60;;;5.45;;
32032;SDS011;31720;52.638;9.216;2023-08-30T06:36:14;8.38;;;5.57;;
32032;SDS011;31720;52.638;9.216;2023-08-30T06:39:17;9.75;;;6.35;;
32032;SDS011;31720;52.638;9.216;2023-08-30T06:42:19;13.38;;;7.32;;
32032;SDS011;31720;52.638;9.216;2023-08-30T06:45:20;12.13;;;7.05;;
32032;SDS011;31720;52.638;9.216;2023-08-30T06:48:23;11.55;;;6.60;;
32032;SDS011;31720;52.638;9.216;2023-08-30T06:51:24;13.63;;;8.07;;
32032;SDS011;31720;52.638;9.216;2023-08-30T06:54:25;9.43;;;5.25;;
32032;SDS011;31720;52.638;9.216;2023-08-30T06:57:27;14.77;;;7.53;;
32032;SDS011;31720;52.638;9.216;2023-08-30T07:00:28;13.65;;;7.45;;
32032;SDS011;31720;52.638;9.216;2023-08-30T07:03:31;10.45;;;6.25;;
32032;SDS011;31720;52.638;9.216;2023-08-30T07:06:32;12.57;;;6.47;;
32032;SDS011;31720;52.638;9.216;2023-08-30T07:09:34;11.32;;;6.63;;
32032;SDS011;31720;52.638;9.216;2023-08-30T07:12:35;11.90;;;6.72;;
32032;SDS011;31720;52.638;9.216;2023-08-30T07:15:36;11.13;;;6.32;;
32032;SDS011;31720;52.638;9.216;2023-08-30T07:18:40;9.70;;;6.20;;
32032;SDS011;31720;52.638;9.216;2023-08-30T07:21:41;11.18;;;5.90;;
32032;SDS011;31720;52.638;9.216;2023-08-30T07:24:43;11.05;;;6.30;;
32032;SDS011;31720;52.638;9.216;2023-08-30T07:27:45;9.50;;;4.88;;
32032;SDS011;31720;52.638;9.216;2023-08-30T07:30:47;10.10;;;6.65;;
32032;SDS011;31720;52.638;9.216;2023-08-30T07:33:49;11.57;;;6.15;;
32032;SDS011;31720;52.638;9.216;2023-08-30T07:36:53;11.65;;;6.05;;
32032;SDS011;31720;52.638;9.216;2023-08-30T07:39:55;11.57;;;7.07;;
32032;SDS011;31720;52.638;9.216;2023-08-30T07:42:56;13.30;;;7.55;;
32032;SDS011;31720;52.638;9.216;2023-08-30T07:45:58;13.65;;;6.93;;
32032;SDS011;31720;52.638;9.216;2023-08-30T07:49:00;13.38;;;6.38;;
32032;SDS011;31720;52.638;9.216;2023-08-30T07:52:02;11.75;;;6.65;;
32032;SDS011;31720;52.638;9.216;2023-08-30T07:55:04;11.65;;;6.57;;
32032;SDS011;31720;52.638;9.216;2023-08-30T07:58:05;9.00;;;5.95;;
32032;SDS011;31720;52.638;9.216;2023-08-30T08:01:09;10.20;;;6.03;;
32032;SDS011;31720;52.638;9.216;2023-08-30T08:04:11;14.02;;;5.75;;
32032;SDS011;31720;52.638;9.216;2023-08-30T08:07:13;8.80;;;4.82;;
32032;SDS011;31720;52.638;9.216;2023-08-30T08:10:14;10.55;;;5.30;;
32032;SDS011;31720;52.638;9.216;2023-08-30T08:13:16;10.32;;;5.47;;
32032;SDS011;31720;52.638;9.216;2023-08-30T08:16:18;8.57;;;5.30;;
32032;SDS011;31720;52.638;9.216;2023-08-30T08:19:21;6.53;;;4.03;;
32032;SDS011;31720;52.638;9.216;2023-08-30T08:22:22;10.75;;;4.75;;
32032;SDS011;31720;52.638;9.216;2023-08-30T08:25:24;7.03;;;4.38;;
32032;SDS011;31720;52.638;9.216;2023-08-30T08:28:25;7.97;;;3.83;;
32032;SDS011;31720;52.638;9.216;2023-08-30T08:31:26;5.80;;;4.00;;
32032;SDS011;31720;52.638;9.216;2023-08-30T08:34:29;7.10;;;4.18;;
32032;SDS011;31720;52.638;9.216;2023-08-30T08:37:31;7.75;;;3.55;;
32032;SDS011;31720;52.638;9.216;2023-08-30T08:40:33;4.60;;;2.80;;
32032;SDS011;31720;52.638;9.216;2023-08-30T08:43:37;5.28;;;2.92;;
32032;SDS011;31720;52.638;9.216;2023-08-30T08:46:41;8.23;;;3.58;;
32032;SDS011;31720;52.638;9.216;2023-08-30T08:49:44;9.40;;;3.35;;
32032;SDS011;31720;52.638;9.216;2023-08-30T08:52:45;5.80;;;2.97;;
32032;SDS011;31720;52.638;9.216;2023-08-30T08:55:47;12.65;;;6.30;;
32032;SDS011;31720;52.638;9.216;2023-08-30T08:58:49;5.20;;;3.20;;
32032;SDS011;31720;52.638;9.216;2023-08-30T09:01:51;4.57;;;2.72;;
32032;SDS011;31720;52.638;9.216;2023-08-30T09:04:55;7.50;;;3.50;;
32032;SDS011;31720;52.638;9.216;2023-08-30T09:07:58;7.30;;;3.75;;
32032;SDS011;31720;52.638;9.216;2023-08-30T09:10:59;7.38;;;3.80;;
32032;SDS011;31720;52.638;9.216;2023-08-30T09:14:01;9.20;;;4.53;;
32032;SDS011;31720;52.638;9.216;2023-08-30T09:17:03;7.90;;;3.95;;
32032;SDS011;31720;52.638;9.216;2023-08-30T09:20:07;6.43;;;3.28;;
32032;SDS011;31720;52.638;9.216;2023-08-30T09:23:16;7.18;;;4.07;;
32032;SDS011;31720;52.638;9.216;2023-08-30T09:26:17;7.28;;;4.03;;
32032;SDS011;31720;52.638;9.216;2023-08-30T09:29:19;6.40;;;3.83;;
32032;SDS011;31720;52.638;9.216;2023-08-30T09:32:23;6.85;;;4.05;;
32032;SDS011;31720;52.638;9.216;2023-08-30T09:35:25;8.90;;;3.80;;
32032;SDS011;31720;52.638;9.216;2023-08-30T09:38:27;9.85;;;5.47;;
32032;SDS011;31720;52.638;9.216;2023-08-30T09:41:28;10.70;;;4.38;;
32032;SDS011;31720;52.638;9.216;2023-08-30T09:44:30;12.38;;;5.53;;
32032;SDS011;31720;52.638;9.216;2023-08-30T09:47:31;10.48;;;5.13;;
32032;SDS011;31720;52.638;9.216;2023-08-30T09:50:36;9.68;;;5.00;;
32032;SDS011;31720;52.638;9.216;2023-08-30T09:53:40;10.80;;;4.97;;
32032;SDS011;31720;52.638;9.216;2023-08-30T09:56:44;8.00;;;4.78;;
32032;SDS011;31720;52.638;9.216;2023-08-30T09:59:46;11.40;;;6.30;;
32032;SDS011;31720;52.638;9.216;2023-08-30T10:02:49;9.20;;;5.53;;
32032;SDS011;31720;52.638;9.216;2023-08-30T10:05:52;9.82;;;4.30;;
32032;SDS011;31720;52.638;9.216;2023-08-30T10:08:55;14.07;;;5.85;;
32032;SDS011;31720;52.638;9.216;2023-08-30T10:11:59;8.55;;;5.22;;
32032;SDS011;31720;52.638;9.216;2023-08-30T10:15:03;12.55;;;4.65;;
32032;SDS011;31720;52.638;9.216;2023-08-30T10:18:05;7.25;;;4.20;;
32032;SDS011;31720;52.638;9.216;2023-08-30T10:21:10;7.50;;;3.47;;
32032;SDS011;31720;52.638;9.216;2023-08-30T10:24:14;14.20;;;5.95;;
32032;SDS011;31720;52.638;9.216;2023-08-30T10:27:20;9.25;;;4.10;;
32032;SDS011;31720;52.638;9.216;2023-08-30T10:30:23;29.67;;;14.45;;
32032;SDS011;31720;52.638;9.216;2023-08-30T10:33:25;9.45;;;4.95;;
32032;SDS011;31720;52.638;9.216;2023-08-30T10:36:28;7.70;;;4.47;;
32032;SDS011;31720;52.638;9.216;2023-08-30T10:39:33;7.00;;;4.13;;
32032;SDS011;31720;52.638;9.216;2023-08-30T10:42:36;8.00;;;3.72;;
32032;SDS011;31720;52.638;9.216;2023-08-30T10:45:38;13.73;;;4.40;;
32032;SDS011;31720;52.638;9.216;2023-08-30T10:48:40;8.60;;;4.43;;
32032;SDS011;31720;52.638;9.216;2023-08-30T10:51:44;5.70;;;3.05;;
32032;SDS011;31720;52.638;9.216;2023-08-30T10:54:47;10.15;;;3.80;;
32032;SDS011;31720;52.638;9.216;2023-08-30T10:57:57;7.72;;;4.00;;
32032;SDS011;31720;52.638;9.216;2023-08-30T11:01:00;9.35;;;3.63;;
32032;SDS011;31720;52.638;9.216;2023-08-30T11:04:01;9.15;;;3.17;;
32032;SDS011;31720;52.638;9.216;2023-08-30T11:07:05;6.97;;;3.50;;
32032;SDS011;31720;52.638;9.216;2023-08-30T11:10:08;7.88;;;2.72;;
32032;SDS011;31720;52.638;9.216;2023-08-30T11:13:10;6.80;;;2.72;;
32032;SDS011;31720;52.638;9.216;2023-08-30T11:16:11;4.75;;;2.63;;
32032;SDS011;31720;52.638;9.216;2023-08-30T11:19:12;5.15;;;2.78;;
32032;SDS011;31720;52.638;9.216;2023-08-30T11:22:15;4.70;;;2.50;;
32032;SDS011;31720;52.638;9.216;2023-08-30T11:25:16;7.05;;;3.35;;
32032;SDS011;31720;52.638;9.216;2023-08-30T11:28:21;5.50;;;2.40;;
32032;SDS011;31720;52.638;9.216;2023-08-30T11:31:23;7.40;;;3.10;;
32032;SDS011;31720;52.638;9.216;2023-08-30T11:34:27;7.05;;;2.92;;
32032;SDS011;31720;52.638;9.216;2023-08-30T11:37:30;7.97;;;3.70;;
32032;SDS011;31720;52.638;9.216;2023-08-30T11:40:32;6.20;;;3.20;;
32032;SDS011;31720;52.638;9.216;2023-08-30T11:43:33;3.90;;;2.30;;
32032;SDS011;31720;52.638;9.216;2023-08-30T11:46:35;6.63;;;3.30;;
32032;SDS011;31720;52.638;9.216;2023-08-30T11:49:36;4.93;;;3.10;;
32032;SDS011;31720;52.638;9.216;2023-08-30T11:52:41;5.72;;;3.03;;
32032;SDS011;31720;52.638;9.216;2023-08-30T11:55:42;5.50;;;2.70;;
32032;SDS011;31720;52.638;9.216;2023-08-30T11:58:44;4.05;;;2.10;;
32032;SDS011;31720;52.638;9.216;2023-08-30T12:01:45;7.00;;;2.83;;
32032;SDS011;31720;52.638;9.216;2023-08-30T12:04:47;6.03;;;2.35;;
32032;SDS011;31720;52.638;9.216;2023-08-30T12:07:50;4.00;;;2.50;;
32032;SDS011;31720;52.638;9.216;2023-08-30T12:10:51;5.18;;;2.75;;
32032;SDS011;31720;52.638;9.216;2023-08-30T12:13:53;6.30;;;2.88;;
32032;SDS011;31720;52.638;9.216;2023-08-30T12:17:02;23.55;;;10.23;;
32032;SDS011;31720;52.638;9.216;2023-08-30T12:20:05;4.88;;;3.05;;
32032;SDS011;31720;52.638;9.216;2023-08-30T12:23:18;9.30;;;3.10;;
32032;SDS011;31720;52.638;9.216;2023-08-30T12:26:20;4.45;;;2.65;;
32032;SDS011;31720;52.638;9.216;2023-08-30T12:29:21;3.63;;;2.25;;
32032;SDS011;31720;52.638;9.216;2023-08-30T12:32:23;4.47;;;2.28;;
32032;SDS011;31720;52.638;9.216;2023-08-30T12:35:24;4.82;;;2.38;;
32032;SDS011;31720;52.638;9.216;2023-08-30T12:38:27;3.20;;;2.17;;
32032;SDS011;31720;52.638;9.216;2023-08-30T12:41:28;8.68;;;3.15;;
32032;SDS011;31720;52.638;9.216;2023-08-30T12:44:30;4.70;;;2.85;;
32032;SDS011;31720;52.638;9.216;2023-08-30T12:47:31;5.60;;;2.85;;
32032;SDS011;31720;52.638;9.216;2023-08-30T12:50:33;8.00;;;2.90;;
32032;SDS011;31720;52.638;9.216;2023-08-30T12:53:36;4.22;;;2.67;;
32032;SDS011;31720;52.638;9.216;2023-08-30T12:56:38;6.63;;;2.90;;
32032;SDS011;31720;52.638;9.216;2023-08-30T12:59:39;8.10;;;4.15;;
32032;SDS011;31720;52.638;9.216;2023-08-30T13:02:40;4.50;;;2.50;;
32032;SDS011;31720;52.638;9.216;2023-08-30T13:05:42;3.30;;;2.13;;
32032;SDS011;31720;52.638;9.216;2023-08-30T13:08:44;5.18;;;3.28;;
32032;SDS011;31720;52.638;9.216;2023-08-30T13:11:46;4.38;;;2.40;;
32032;SDS011;31720;52.638;9.216;2023-08-30T13:14:47;6.82;;;3.10;;
32032;SDS011;31720;52.638;9.216;2023-08-30T13:17:49;3.80;;;2.38;;
32032;SDS011;31720;52.638;9.216;2023-08-30T13:20:53;6.53;;;2.60;;
32032;SDS011;31720;52.638;9.216;2023-08-30T13:23:56;6.18;;;3.38;;
32032;SDS011;31720;52.638;9.216;2023-08-30T13:26:57;6.75;;;2.97;;
32032;SDS011;31720;52.638;9.216;2023-08-30T13:29:59;5.68;;;2.97;;
32032;SDS011;31720;52.638;9.216;2023-08-30T13:33:00;3.67;;;2.33;;
32032;SDS011;31720;52.638;9.216;2023-08-30T13:36:02;7.47;;;3.65;;
32032;SDS011;31720;52.638;9.216;2023-08-30T13:39:05;3.17;;;2.38;;
32032;SDS011;31720;52.638;9.216;2023-08-30T13:42:06;10.70;;;5.85;;
32032;SDS011;31720;52.638;9.216;2023-08-30T13:45:08;7.30;;;3.67;;
32032;SDS011;31720;52.638;9.216;2023-08-30T13:48:10;7.07;;;2.78;;
32032;SDS011;31720;52.638;9.216;2023-08-30T13:51:11;10.90;;;3.55;;
32032;SDS011;31720;52.638;9.216;2023-08-30T13:54:14;6.25;;;2.63;;
32032;SDS011;31720;52.638;9.216;2023-08-30T13:57:15;5.72;;;3.17;;
32032;SDS011;31720;52.638;9.216;2023-08-30T14:00:17;5.30;;;2.60;;
32032;SDS011;31720;52.638;9.216;2023-08-30T14:03:19;6.30;;;2.63;;
32032;SDS011;31720;52.638;9.216;2023-08-30T14:06:21;4.70;;;2.58;;
32032;SDS011;31720;52.638;9.216;2023-08-30T14:09:24;6.00;;;3.13;;
32032;SDS011;31720;52.638;9.216;2023-08-30T14:12:25;6.65;;;2.75;;
32032;SDS011;31720;52.638;9.216;2023-08-30T14:15:26;4.27;;;2.53;;
32032;SDS011;31720;52.638;9.216;2023-08-30T14:18:28;7.45;;;2.92;;
32032;SDS011;31720;52.638;9.216;2023-08-30T14:21:29;5.97;;;2.67;;
32032;SDS011;31720;52.638;9.216;2023-08-30T14:24:32;3.75;;;2.33;;
32032;SDS011;31720;52.638;9.216;2023-08-30T14:27:34;5.53;;;3.25;;
32032;SDS011;31720;52.638;9.216;2023-08-30T14:30:35;7.20;;;3.08;;
32032;SDS011;31720;52.638;9.216;2023-08-30T14:33:37;6.18;;;3.83;;
32032;SDS011;31720;52.638;9.216;2023-08-30T14:36:38;7.15;;;3.80;;
32032;SDS011;31720;52.638;9.216;2023-08-30T14:39:41;7.25;;;3.65;;
32032;SDS011;31720;52.638;9.216;2023-08-30T14:42:43;5.75;;;3.30;;
32032;SDS011;31720;52.638;9.216;2023-08-30T14:45:44;7.85;;;3.83;;
32032;SDS011;31720;52.638;9.216;2023-08-30T14:48:45;6.85;;;3.95;;
32032;SDS011;31720;52.638;9.216;2023-08-30T14:51:47;8.38;;;4.68;;
32032;SDS011;31720;52.638;9.216;2023-08-30T14:54:50;7.30;;;4.50;;
32032;SDS011;31720;52.638;9.216;2023-08-30T14:57:51;9.70;;;5.00;;
32032;SDS011;31720;52.638;9.216;2023-08-30T15:00:52;10.80;;;5.80;;
32032;SDS011;31720;52.638;9.216;2023-08-30T15:03:54;9.93;;;6.38;;
32032;SDS011;31720;52.638;9.216;2023-08-30T15:06:55;14.75;;;6.80;;
32032;SDS011;31720;52.638;9.216;2023-08-30T15:09:58;8.77;;;5.47;;
32032;SDS011;31720;52.638;9.216;2023-08-30T15:12:59;10.75;;;6.57;;
32032;SDS011;31720;52.638;9.216;2023-08-30T15:16:00;12.68;;;5.93;;
32032;SDS011;31720;52.638;9.216;2023-08-30T15:19:02;10.57;;;6.22;;
32032;SDS011;31720;52.638;9.216;2023-08-30T15:22:04;12.10;;;6.60;;
32032;SDS011;31720;52.638;9.216;2023-08-30T15:25:07;15.65;;;7.50;;
32032;SDS011;31720;52.638;9.216;2023-08-30T15:28:08;12.90;;;6.68;;
32032;SDS011;31720;52.638;9.216;2023-08-30T15:31:09;11.65;;;6.57;;
32032;SDS011;31720;52.638;9.216;2023-08-30T15:34:11;10.63;;;5.07;;
32032;SDS011;31720;52.638;9.216;2023-08-30T15:37:12;11.63;;;6.53;;
32032;SDS011;31720;52.638;9.216;2023-08-30T15:40:15;12.27;;;6.20;;
32032;SDS011;31720;52.638;9.216;2023-08-30T15:43:17;8.10;;;5.40;;
32032;SDS011;31720;52.638;9.216;2023-08-30T15:46:18;9.07;;;5.13;;
32032;SDS011;31720;52.638;9.216;2023-08-30T15:49:21;8.35;;;5.28;;
32032;SDS011;31720;52.638;9.216;2023-08-30T15:52:22;10.52;;;5.95;;
32032;SDS011;31720;52.638;9.216;2023-08-30T15:55:25;11.52;;;5.32;;
32032;SDS011;31720;52.638;9.216;2023-08-30T15:58:28;10.82;;;6.00;;
32032;SDS011;31720;52.638;9.216;2023-08-30T16:01:29;10.55;;;5.72;;
32032;SDS011;31720;52.638;9.216;2023-08-30T16:04:31;9.35;;;5.95;;
32032;SDS011;31720;52.638;9.216;2023-08-30T16:07:32;10.20;;;4.60;;
32032;SDS011;31720;52.638;9.216;2023-08-30T16:10:35;10.88;;;6.10;;
32032;SDS011;31720;52.638;9.216;2023-08-30T16:13:36;9.52;;;5.53;;
32032;SDS011;31720;52.638;9.216;2023-08-30T16:16:38;5.80;;;3.83;;
32032;SDS011;31720;52.638;9.216;2023-08-30T16:19:39;12.30;;;5.40;;
32032;SDS011;31720;52.638;9.216;2023-08-30T16:22:41;12.73;;;6.05;;
32032;SDS011;31720;52.638;9.216;2023-08-30T16:25:43;11.90;;;6.57;;
32032;SDS011;31720;52.638;9.216;2023-08-30T16:28:45;9.85;;;5.70;;
32032;SDS011;31720;52.638;9.216;2023-08-30T16:31:47;12.25;;;6.28;;
32032;SDS011;31720;52.638;9.216;2023-08-30T16:34:51;10.57;;;5.85;;
32032;SDS011;31720;52.638;9.216;2023-08-30T16:37:53;13.88;;;5.63;;
32032;SDS011;31720;52.638;9.216;2023-08-30T16:40:56;10.68;;;6.53;;
32032;SDS011;31720;52.638;9.216;2023-08-30T16:44:02;12.90;;;5.82;;
32032;SDS011;31720;52.638;9.216;2023-08-30T16:47:04;9.35;;;5.13;;
32032;SDS011;31720;52.638;9.216;2023-08-30T16:50:05;11.05;;;6.72;;
32032;SDS011;31720;52.638;9.216;2023-08-30T16:53:07;12.93;;;6.72;;
32032;SDS011;31720;52.638;9.216;2023-08-30T16:56:10;11.52;;;7.47;;
32032;SDS011;31720;52.638;9.216;2023-08-30T16:59:11;13.38;;;7.30;;
32032;SDS011;31720;52.638;9.216;2023-08-30T17:02:13;12.50;;;6.20;;
32032;SDS011;31720;52.638;9.216;2023-08-30T17:05:14;14.27;;;7.65;;
32032;SDS011;31720;52.638;9.216;2023-08-30T17:08:16;10.95;;;7.03;;
32032;SDS011;31720;52.638;9.216;2023-08-30T17:11:19;13.73;;;7.43;;
32032;SDS011;31720;52.638;9.216;2023-08-30T17:14:20;15.95;;;8.60;;
32032;SDS011;31720;52.638;9.216;2023-08-30T17:17:21;16.98;;;7.70;;
32032;SDS011;31720;52.638;9.216;2023-08-30T17:20:23;10.35;;;6.40;;
32032;SDS011;31720;52.638;9.216;2023-08-30T17:23:24;10.57;;;7.43;;
32032;SDS011;31720;52.638;9.216;2023-08-30T17:26:27;10.23;;;6.85;;
32032;SDS011;31720;52.638;9.216;2023-08-30T17:29:28;10.90;;;7.10;;
32032;SDS011;31720;52.638;9.216;2023-08-30T17:32:29;13.57;;;7.65;;
32032;SDS011;31720;52.638;9.216;2023-08-30T17:35:31;12.00;;;6.45;;
32032;SDS011;31720;52.638;9.216;2023-08-30T17:38:36;10.88;;;6.70;;
32032;SDS011;31720;52.638;9.216;2023-08-30T17:41:40;12.35;;;6.90;;
32032;SDS011;31720;52.638;9.216;2023-08-30T17:44:42;14.65;;;6.28;;
32032;SDS011;31720;52.638;9.216;2023-08-30T17:47:44;15.18;;;6.75;;
32032;SDS011;31720;52.638;9.216;2023-08-30T17:50:47;10.10;;;5.82;;
32032;SDS011;31720;52.638;9.216;2023-08-30T17:53:48;11.57;;;5.85;;
32032;SDS011;31720;52.638;9.216;2023-08-30T17:56:51;10.57;;;6.32;;
32032;SDS011;31720;52.638;9.216;2023-08-30T17:59:53;11.57;;;6.00;;
32032;SDS011;31720;52.638;9.216;2023-08-30T18:02:54;9.40;;;5.93;;
32032;SDS011;31720;52.638;9.216;2023-08-30T18:05:59;9.63;;;5.38;;
32032;SDS011;31720;52.638;9.216;2023-08-30T18:09:01;10.65;;;6.63;;
32032;SDS011;31720;52.638;9.216;2023-08-30T18:12:04;11.80;;;6.15;;
32032;SDS011;31720;52.638;9.216;2023-08-30T18:15:07;8.95;;;5.78;;